createdAt,value
2024-03-13T00:00:32.069Z,77.03
2024-03-13T00:02:59.922Z,77.12
2024-03-13T00:05:26.536Z,76.51
2024-03-13T00:07:53.109Z,76.73
2024-03-13T00:10:19.728Z,76.89
2024-03-13T00:12:46.410Z,76.61
2024-03-13T00:15:12.956Z,77.14
2024-03-13T00:17:39.492Z,76.97
2024-03-13T00:20:07.108Z,76.77
2024-03-13T00:22:37.749Z,77.29
2024-03-13T00:25:08.439Z,76.54
2024-03-13T00:27:35.315Z,77.05
2024-03-13T00:30:01.804Z,77.07
2024-03-13T00:32:29.477Z,77.05
2024-03-13T00:34:55.913Z,77.14
2024-03-13T00:37:22.825Z,76.59
2024-03-13T00:39:49.720Z,76.98
2024-03-13T00:42:16.204Z,75.79
2024-03-13T00:44:43.176Z,76.35
2024-03-13T00:47:09.731Z,76.79
2024-03-13T00:49:36.739Z,77.21
2024-03-13T00:52:03.559Z,76.78
2024-03-13T00:54:31.613Z,77.17
2024-03-13T00:57:01.511Z,76.96
2024-03-13T00:59:28.402Z,77.00
2024-03-13T01:01:56.557Z,76.55
2024-03-13T01:04:27.024Z,76.62
2024-03-13T01:06:53.870Z,76.67
2024-03-13T01:28:57.529Z,76.74
2024-03-13T01:31:24.893Z,76.91
2024-03-13T01:33:51.478Z,76.78
2024-03-13T01:36:37.919Z,76.72
2024-03-13T01:39:04.465Z,76.29
2024-03-13T01:41:49.764Z,76.70
2024-03-13T01:44:34.648Z,76.57
2024-03-13T01:47:19.710Z,76.69
2024-03-13T01:50:04.695Z,76.30
2024-03-13T01:52:49.868Z,76.66
2024-03-13T01:55:26.516Z,75.71
2024-03-13T01:57:59.601Z,76.58
2024-03-13T02:00:45.428Z,76.70
2024-03-13T02:03:12.459Z,76.92
2024-03-13T02:05:38.996Z,76.68
2024-03-13T02:08:05.780Z,76.40
2024-03-13T02:10:32.788Z,76.19
2024-03-13T02:13:03.869Z,76.20
2024-03-13T02:15:30.450Z,76.47
2024-03-13T02:17:56.986Z,76.51
2024-03-13T02:20:26.530Z,76.37
2024-03-13T02:23:00.407Z,76.07
2024-03-13T02:25:26.979Z,76.79
2024-03-13T02:27:53.517Z,76.88
2024-03-13T02:30:20.087Z,76.89
2024-03-13T02:32:48.468Z,76.56
2024-03-13T02:35:15.171Z,76.75
2024-03-13T02:37:42.439Z,76.86
2024-03-13T02:40:11.380Z,76.48
2024-03-13T02:42:38.730Z,76.65
2024-03-13T02:45:06.785Z,76.50
2024-03-13T02:47:33.265Z,76.58
2024-03-13T02:50:00.957Z,76.39
2024-03-13T02:52:27.521Z,77.14
2024-03-13T02:54:54.751Z,76.72
2024-03-13T02:57:21.852Z,76.51
2024-03-13T02:59:48.333Z,76.75
2024-03-13T03:02:14.966Z,77.08
2024-03-13T03:04:43.269Z,76.78
2024-03-13T03:07:09.836Z,76.77
2024-03-13T03:09:36.479Z,77.05
2024-03-13T03:12:31.021Z,77.13
2024-03-13T03:14:57.573Z,76.99
2024-03-13T03:17:24.112Z,76.95
2024-03-13T03:19:53.435Z,77.09
2024-03-13T03:22:20.038Z,77.07
2024-03-13T03:24:46.825Z,76.93
2024-03-13T03:27:14.002Z,77.02
2024-03-13T03:29:41.934Z,76.75
2024-03-13T03:32:08.996Z,76.68
2024-03-13T03:34:35.955Z,76.98
2024-03-13T03:37:02.689Z,77.12
2024-03-13T03:39:30.406Z,76.74
2024-03-13T03:41:58.517Z,76.90
2024-03-13T03:44:25.052Z,76.56
2024-03-13T03:46:51.482Z,77.03
2024-03-13T03:49:17.969Z,77.10
2024-03-13T03:51:44.769Z,76.80
2024-03-13T03:54:11.247Z,76.96
2024-03-13T03:56:40.552Z,76.81
2024-03-13T03:59:11.289Z,77.25
2024-03-13T04:01:37.914Z,77.47
2024-03-13T04:04:07.383Z,77.11
2024-03-13T04:06:33.893Z,76.83
2024-03-13T04:09:00.406Z,76.83
2024-03-13T04:11:27.313Z,77.18
2024-03-13T04:13:53.796Z,77.01
2024-03-13T04:16:21.521Z,76.76
2024-03-13T04:18:48.099Z,77.06
2024-03-13T04:21:14.850Z,76.97
2024-03-13T04:23:45.320Z,77.13
2024-03-13T04:26:11.747Z,77.13
2024-03-13T04:28:39.072Z,76.74
2024-03-13T04:31:05.694Z,76.95
2024-03-13T04:33:32.252Z,77.00
2024-03-13T04:35:58.867Z,76.93
2024-03-13T04:38:27.891Z,77.08
2024-03-13T04:40:54.388Z,77.03
2024-03-13T04:43:20.940Z,76.90
2024-03-13T04:45:47.479Z,77.03
2024-03-13T04:48:14.402Z,77.28
2024-03-13T04:50:41.044Z,76.81
2024-03-13T04:53:07.494Z,77.07
2024-03-13T04:55:34.020Z,76.94
2024-03-13T04:58:00.597Z,77.30
2024-03-13T05:00:27.146Z,76.65
2024-03-13T05:02:53.752Z,76.82
2024-03-13T05:05:20.332Z,77.11
2024-03-13T05:07:47.062Z,77.38
2024-03-13T05:14:34.385Z,77.10
2024-03-13T05:17:00.966Z,77.10
2024-03-13T05:19:27.487Z,77.38
2024-03-13T05:21:54.033Z,77.05
2024-03-13T05:24:20.527Z,77.12
2024-03-13T05:26:47.840Z,77.51
2024-03-13T05:29:15.786Z,77.40
2024-03-13T05:31:42.255Z,77.23
2024-03-13T05:34:10.773Z,77.32
2024-03-13T05:36:40.261Z,77.06
2024-03-13T05:39:07.096Z,77.55
2024-03-13T05:41:35.910Z,77.26
2024-03-13T05:44:02.580Z,77.13
2024-03-13T05:46:29.082Z,77.24
2024-03-13T05:48:55.644Z,77.21
2024-03-13T05:51:22.134Z,76.94
2024-03-13T05:53:48.674Z,76.95
2024-03-13T05:56:15.165Z,76.83
2024-03-13T05:58:42.452Z,77.33
2024-03-13T06:01:23.490Z,77.11
2024-03-13T06:03:54.403Z,76.94
2024-03-13T06:06:22.380Z,76.80
2024-03-13T06:08:48.891Z,77.22
2024-03-13T06:11:18.167Z,77.22
2024-03-13T06:13:44.645Z,77.08
2024-03-13T06:16:11.131Z,77.52
2024-03-13T06:18:37.880Z,76.55
2024-03-13T06:21:06.162Z,77.02
2024-03-13T06:23:33.347Z,77.37
2024-03-13T06:25:59.765Z,77.35
2024-03-13T06:28:44.901Z,77.35
2024-03-13T06:31:11.480Z,76.92
2024-03-13T06:33:37.958Z,77.11
2024-03-13T06:36:04.620Z,77.09
2024-03-13T06:38:31.120Z,77.12
2024-03-13T06:40:57.670Z,77.09
2024-03-13T06:43:24.306Z,77.25
2024-03-13T06:45:52.111Z,77.19
2024-03-13T06:48:18.705Z,77.05
2024-03-13T06:50:45.787Z,77.22
2024-03-13T06:53:12.296Z,77.11
2024-03-13T06:55:38.988Z,77.17
2024-03-13T06:58:05.753Z,77.10
2024-03-13T07:00:34.212Z,77.20
2024-03-13T07:03:02.963Z,77.08
2024-03-13T07:05:29.703Z,76.92
2024-03-13T07:07:57.041Z,77.05
2024-03-13T07:10:23.710Z,77.71
2024-03-13T07:12:50.345Z,77.35
2024-03-13T07:15:16.909Z,77.02
2024-03-13T07:17:46.701Z,77.27
2024-03-13T07:20:14.164Z,76.87
2024-03-13T07:22:40.699Z,76.98
2024-03-13T07:25:10.606Z,77.12
2024-03-13T07:27:37.433Z,77.17
2024-03-13T07:30:05.800Z,77.09
2024-03-13T07:32:35.958Z,77.32
2024-03-13T07:35:02.929Z,77.18
2024-03-13T07:37:29.401Z,77.25
2024-03-13T07:39:56.596Z,77.27
2024-03-13T07:42:23.054Z,77.39
2024-03-13T07:52:16.121Z,77.28
2024-03-13T07:54:42.647Z,77.31
2024-03-13T07:57:14.930Z,77.00
2024-03-13T07:59:41.936Z,77.13
2024-03-13T08:02:09.199Z,77.05
2024-03-13T08:04:37.461Z,77.23
2024-03-13T09:07:35.885Z,77.70
2024-03-13T09:10:02.567Z,77.57
2024-03-13T09:12:29.151Z,77.52
2024-03-13T09:14:55.724Z,77.70
2024-03-13T09:17:22.294Z,77.67
2024-03-13T09:19:50.937Z,77.71
2024-03-13T09:22:19.458Z,77.63
2024-03-13T09:24:45.909Z,77.61
2024-03-13T09:27:12.531Z,77.34
2024-03-13T09:29:39.091Z,77.50
2024-03-13T09:32:06.758Z,77.61
2024-03-13T09:34:33.221Z,77.42
2024-03-13T09:37:00.914Z,77.59
2024-03-13T09:39:27.379Z,77.72
2024-03-13T09:41:54.564Z,77.69
2024-03-13T09:44:21.136Z,77.53
2024-03-13T09:46:48.039Z,77.55
2024-03-13T09:49:14.579Z,77.78
2024-03-13T09:51:42.328Z,77.57
2024-03-13T09:54:09.371Z,77.78
2024-03-13T09:56:35.947Z,77.82
2024-03-13T09:59:05.812Z,77.79
2024-03-13T10:01:36.550Z,77.52
2024-03-13T10:04:11.795Z,77.76
2024-03-13T10:10:31.598Z,77.87
2024-03-13T10:12:58.173Z,77.67
2024-03-13T10:15:24.959Z,77.83
2024-03-13T10:18:10.149Z,77.69
2024-03-13T10:20:44.999Z,78.03
2024-03-13T10:23:12.784Z,77.74
2024-03-13T10:25:40.812Z,77.79
2024-03-13T10:28:07.368Z,77.97
2024-03-13T10:30:33.851Z,77.95
2024-03-13T10:33:00.568Z,77.81
2024-03-13T10:35:27.597Z,77.72
2024-03-13T10:37:54.907Z,77.85
2024-03-13T10:40:21.486Z,78.16
2024-03-13T10:42:48.999Z,78.02
2024-03-13T10:45:15.755Z,78.08
2024-03-13T10:47:42.321Z,78.04
2024-03-13T10:50:11.477Z,78.00
2024-03-13T10:52:39.087Z,78.16
2024-03-13T10:55:06.083Z,77.89
2024-03-13T10:57:32.605Z,78.08
2024-03-13T11:00:06.705Z,78.00
2024-03-13T11:02:57.486Z,78.29
2024-03-13T11:05:24.350Z,78.31
2024-03-13T11:07:53.529Z,78.33
2024-03-13T11:10:22.794Z,78.09
2024-03-13T11:12:52.570Z,78.11
2024-03-13T11:15:25.499Z,78.27
2024-03-13T11:17:58.186Z,78.40
2024-03-13T11:20:28.001Z,78.07
2024-03-13T11:23:07.090Z,78.31
2024-03-13T11:25:35.544Z,78.39
2024-03-13T11:28:03.553Z,78.06
2024-03-13T11:33:21.202Z,78.56
2024-03-13T11:35:47.993Z,78.44
2024-03-13T11:38:14.456Z,78.36
2024-03-13T11:40:42.800Z,78.47
2024-03-13T11:43:11.196Z,78.48
2024-03-13T11:45:46.827Z,78.26
2024-03-13T11:48:17.154Z,78.33
2024-03-13T11:51:02.323Z,78.38
2024-03-13T11:53:32.639Z,78.39
2024-03-13T11:56:02.729Z,78.50
2024-03-13T11:58:29.208Z,78.47
2024-03-13T12:00:55.706Z,78.67
2024-03-13T12:03:22.310Z,78.56
2024-03-13T12:05:48.793Z,78.56
2024-03-13T12:08:16.184Z,78.45
2024-03-13T12:10:42.714Z,78.35
2024-03-13T12:13:14.527Z,78.63
2024-03-13T12:15:45.292Z,78.54
2024-03-13T12:18:12.453Z,78.58
2024-03-13T12:20:42.393Z,78.32
2024-03-13T12:23:09.512Z,78.49
2024-03-13T12:25:36.246Z,78.29
2024-03-13T12:28:03.094Z,78.43
2024-03-13T12:30:38.746Z,78.69
2024-03-13T12:33:06.608Z,78.51
2024-03-13T12:35:36.318Z,78.55
2024-03-13T12:38:02.876Z,78.51
2024-03-13T12:40:29.425Z,78.69
2024-03-13T12:42:55.878Z,78.64
2024-03-13T12:45:22.653Z,78.52
2024-03-13T12:47:49.468Z,78.58
2024-03-13T12:50:17.458Z,78.55
2024-03-13T12:52:46.022Z,78.53
2024-03-13T12:55:21.246Z,78.78
2024-03-13T12:57:51.559Z,78.49
2024-03-13T13:00:21.973Z,78.46
2024-03-13T13:02:51.623Z,78.66
2024-03-13T13:05:18.172Z,78.75
2024-03-13T13:07:51.826Z,78.73
2024-03-13T13:10:22.817Z,78.62
2024-03-13T13:12:50.110Z,78.76
2024-03-13T13:15:16.797Z,78.52
2024-03-13T13:17:45.349Z,78.77
2024-03-13T13:20:17.005Z,78.78
2024-03-13T13:22:45.302Z,78.86
2024-03-13T13:25:12.663Z,78.71
2024-03-13T13:27:43.950Z,78.64
2024-03-13T13:30:16.822Z,78.77
2024-03-13T13:32:43.618Z,78.89
2024-03-13T13:35:11.943Z,79.06
2024-03-13T13:37:41.933Z,78.93
2024-03-13T13:40:16.650Z,78.97
2024-03-13T13:42:43.567Z,78.76
2024-03-13T13:45:17.791Z,79.03
2024-03-13T13:47:46.644Z,78.75
2024-03-13T13:50:17.776Z,78.98
2024-03-13T13:52:47.688Z,78.83
2024-03-13T13:55:16.516Z,78.96
2024-03-13T13:57:50.660Z,79.11
2024-03-13T14:00:20.207Z,79.04
2024-03-13T14:02:47.370Z,78.67
2024-03-13T14:05:14.274Z,79.08
2024-03-13T14:07:41.217Z,78.94
2024-03-13T14:10:14.146Z,78.94
2024-03-13T14:12:42.071Z,79.06
2024-03-13T14:15:11.476Z,78.83
2024-03-13T14:17:39.489Z,78.98
2024-03-13T14:20:19.783Z,79.10
2024-03-13T14:22:49.680Z,79.04
2024-03-13T14:25:16.158Z,78.96
2024-03-13T14:27:43.529Z,79.17
2024-03-13T14:30:10.484Z,79.12
2024-03-13T14:32:37.131Z,79.01
2024-03-13T14:37:36.585Z,79.07
2024-03-13T14:40:07.160Z,79.08
2024-03-13T14:42:34.837Z,78.96
2024-03-13T14:45:06.511Z,78.94
2024-03-13T14:47:33.366Z,79.17
2024-03-13T14:50:00.415Z,78.90
2024-03-13T14:52:28.160Z,79.20
2024-03-13T14:54:54.758Z,79.14
2024-03-13T14:57:21.853Z,79.22
2024-03-13T14:59:49.323Z,78.97
2024-03-13T15:02:15.986Z,78.96
2024-03-13T15:04:44.113Z,79.06
2024-03-13T15:07:11.073Z,79.06
2024-03-13T15:09:41.766Z,78.99
2024-03-13T15:12:15.974Z,78.96
2024-03-13T15:14:44.580Z,78.89
2024-03-13T15:17:11.824Z,79.21
2024-03-13T15:19:39.700Z,79.13
2024-03-13T15:22:06.764Z,79.01
2024-03-13T15:24:33.439Z,79.21
2024-03-13T15:27:00.019Z,79.20
2024-03-13T15:29:27.886Z,79.29
2024-03-13T15:31:54.759Z,79.38
2024-03-13T15:34:21.342Z,79.20
2024-03-13T15:36:47.880Z,79.14
2024-03-13T15:39:14.874Z,79.07
2024-03-13T15:41:43.036Z,79.21
2024-03-13T15:44:13.771Z,79.21
2024-03-13T15:46:42.366Z,79.21
2024-03-13T15:49:09.147Z,79.40
2024-03-13T15:51:35.758Z,79.38
2024-03-13T15:54:02.256Z,79.09
2024-03-13T15:56:28.778Z,79.14
2024-03-13T15:58:55.212Z,79.13
2024-03-13T16:01:21.883Z,79.09
2024-03-13T16:03:48.452Z,79.36
2024-03-13T16:06:17.442Z,79.08
2024-03-13T16:08:47.305Z,79.48
2024-03-13T16:11:13.893Z,79.41
2024-03-13T16:13:40.404Z,79.13
2024-03-13T16:16:07.453Z,79.16
2024-03-13T16:18:34.206Z,79.31
2024-03-13T16:21:01.059Z,79.34
2024-03-13T16:23:27.565Z,79.40
2024-03-13T16:25:53.973Z,79.57
2024-03-13T16:28:20.404Z,79.29
2024-03-13T16:30:47.123Z,79.14
2024-03-13T16:33:13.620Z,79.08
2024-03-13T16:35:40.187Z,79.37
2024-03-13T16:38:07.522Z,79.45
2024-03-13T16:40:34.001Z,79.41
2024-03-13T16:43:00.577Z,79.17
2024-03-13T16:45:27.333Z,79.46
2024-03-13T16:47:54.410Z,79.40
2024-03-13T16:50:20.973Z,79.19
2024-03-13T16:52:47.598Z,79.19
2024-03-13T16:55:14.314Z,79.31
2024-03-13T16:57:42.273Z,79.33
2024-03-13T17:00:16.210Z,79.43
2024-03-13T17:02:43.724Z,79.32
2024-03-13T17:05:12.727Z,79.30
2024-03-13T17:07:41.466Z,79.39
2024-03-13T17:10:08.115Z,79.34
2024-03-13T17:12:34.655Z,79.22
2024-03-13T17:15:01.201Z,79.44
2024-03-13T17:17:27.752Z,79.59
2024-03-13T17:19:54.469Z,79.23
2024-03-13T17:22:20.968Z,79.28
2024-03-13T17:24:47.688Z,79.32
2024-03-13T17:27:14.233Z,79.47
2024-03-13T17:29:40.895Z,79.64
2024-03-13T17:32:08.325Z,79.34
2024-03-13T17:34:34.847Z,79.46
2024-03-13T17:37:01.348Z,79.40
2024-03-13T17:39:28.149Z,79.31
2024-03-13T17:41:54.741Z,79.39
2024-03-13T17:44:21.423Z,79.42
2024-03-13T17:46:47.864Z,79.28
2024-03-13T17:49:14.362Z,79.18
2024-03-13T17:51:41.022Z,79.07
2024-03-13T17:54:08.042Z,79.34
2024-03-13T17:56:34.588Z,79.16
2024-03-13T17:59:01.982Z,79.32
2024-03-13T18:01:31.620Z,79.39
2024-03-13T18:03:58.608Z,79.14
2024-03-13T18:06:25.852Z,79.17
2024-03-13T18:08:52.479Z,79.44
2024-03-13T18:11:19.076Z,79.45
2024-03-13T18:13:48.369Z,79.13
2024-03-13T18:16:14.872Z,79.29
2024-03-13T18:18:41.388Z,79.41
2024-03-13T18:21:14.715Z,79.29
2024-03-13T18:23:43.966Z,79.47
2024-03-13T18:26:12.704Z,79.23
2024-03-13T18:28:39.864Z,79.10
2024-03-13T18:31:10.164Z,79.49
2024-03-13T18:33:36.910Z,79.50
2024-03-13T18:36:05.245Z,79.42
2024-03-13T18:38:31.905Z,79.23
2024-03-13T18:40:59.973Z,79.44
2024-03-13T18:43:26.429Z,79.39
2024-03-13T18:45:52.863Z,79.69
2024-03-13T18:48:19.449Z,79.52
2024-03-13T18:50:46.013Z,79.28
2024-03-13T18:53:12.891Z,79.33
2024-03-13T18:55:39.451Z,79.27
2024-03-13T18:58:05.956Z,79.20
2024-03-13T19:00:32.680Z,79.08
2024-03-13T19:02:59.641Z,79.11
2024-03-13T19:05:27.327Z,79.21
2024-03-13T19:07:54.284Z,79.27
2024-03-13T19:10:24.745Z,78.95
2024-03-13T19:12:56.440Z,79.37
2024-03-13T19:15:23.150Z,79.27
2024-03-13T19:17:49.822Z,79.12
2024-03-13T19:20:16.446Z,79.22
2024-03-13T19:22:44.017Z,79.26
2024-03-13T19:25:13.460Z,79.34
2024-03-13T19:27:39.970Z,79.14
2024-03-13T19:30:07.350Z,79.31
2024-03-13T19:32:34.879Z,79.21
2024-03-13T19:35:01.584Z,79.08
2024-03-13T19:37:28.086Z,79.09
2024-03-13T19:39:54.931Z,79.07
2024-03-13T19:42:21.546Z,79.18
2024-03-13T19:44:48.133Z,79.06
2024-03-13T19:47:14.645Z,79.38
2024-03-13T19:49:41.149Z,79.32
2024-03-13T19:52:08.680Z,79.34
2024-03-13T19:54:35.270Z,79.14
2024-03-13T19:57:03.542Z,79.01
2024-03-13T19:59:30.332Z,79.08
2024-03-13T20:01:56.889Z,79.15
2024-03-13T20:04:23.338Z,78.80
2024-03-13T20:06:51.903Z,79.27
2024-03-13T20:09:19.528Z,79.02
2024-03-13T20:11:46.286Z,79.11
2024-03-13T20:14:16.089Z,79.33
2024-03-13T20:16:44.412Z,79.07
2024-03-13T20:19:13.854Z,79.10
2024-03-13T20:21:40.557Z,79.22
2024-03-13T20:24:08.132Z,79.29
2024-03-13T20:26:42.066Z,78.90
2024-03-13T20:29:09.124Z,79.19
2024-03-13T20:31:36.469Z,79.27
2024-03-13T20:34:04.366Z,79.07
2024-03-13T20:36:32.918Z,79.16
2024-03-13T20:38:59.437Z,79.19
2024-03-13T20:41:26.429Z,79.22
2024-03-13T20:43:52.893Z,79.23
2024-03-13T20:46:19.320Z,79.06
2024-03-13T20:48:45.846Z,78.83
2024-03-13T20:51:12.531Z,79.22
2024-03-13T20:53:39.013Z,79.11
2024-03-13T20:56:06.775Z,79.28
2024-03-13T20:58:33.252Z,79.37
2024-03-13T21:00:59.762Z,79.05
2024-03-13T21:03:26.361Z,79.06
2024-03-13T21:05:53.236Z,79.06
2024-03-13T21:08:19.781Z,78.87
2024-03-13T21:10:46.186Z,78.89
2024-03-13T21:13:12.659Z,78.65
2024-03-13T21:15:46.073Z,79.03
2024-03-13T21:18:29.762Z,78.94
2024-03-13T21:20:57.416Z,79.13
2024-03-13T21:23:23.881Z,78.70
2024-03-13T21:25:50.385Z,79.15
2024-03-13T21:28:16.997Z,78.97
2024-03-13T21:30:43.498Z,79.09
2024-03-13T21:33:12.487Z,78.88
2024-03-13T21:35:39.165Z,79.09
2024-03-13T21:38:05.693Z,79.19
2024-03-13T21:40:32.144Z,78.96
2024-03-13T21:42:58.947Z,78.96
2024-03-13T21:45:25.539Z,78.84
2024-03-13T21:47:52.097Z,78.93
2024-03-13T21:50:18.604Z,79.15
2024-03-13T21:52:45.268Z,78.86
2024-03-13T21:55:13.139Z,78.99
2024-03-13T21:57:43.758Z,78.83
2024-03-13T22:00:10.956Z,78.82
2024-03-13T22:02:37.458Z,79.08
2024-03-13T22:05:05.287Z,78.71
2024-03-13T22:07:32.025Z,78.87
2024-03-13T22:09:58.553Z,79.04
2024-03-13T22:12:28.289Z,79.07
2024-03-13T22:14:55.104Z,79.04
2024-03-13T22:17:21.540Z,78.92
2024-03-13T22:19:49.320Z,79.04
2024-03-13T22:22:15.854Z,78.93
2024-03-13T22:24:42.413Z,78.99
2024-03-13T22:27:09.259Z,78.89
2024-03-13T22:29:35.833Z,78.86
2024-03-13T22:32:02.325Z,78.76
2024-03-13T22:34:28.839Z,79.01
2024-03-13T22:36:55.321Z,78.75
2024-03-13T22:39:28.101Z,78.91
2024-03-13T22:49:13.290Z,78.77
2024-03-13T22:51:40.349Z,79.04
2024-03-13T23:12:20.461Z,78.93
2024-03-13T23:14:50.777Z,78.87
2024-03-13T23:17:21.979Z,78.81
2024-03-13T23:20:10.795Z,78.65
2024-03-13T23:22:43.784Z,78.97
2024-03-13T23:25:11.043Z,78.54
2024-03-13T23:27:38.089Z,78.88
2024-03-13T23:30:05.773Z,78.99
2024-03-13T23:32:32.715Z,78.59
2024-03-13T23:34:59.396Z,78.68
2024-03-13T23:37:26.204Z,78.86
2024-03-13T23:39:52.714Z,78.57
2024-03-13T23:42:19.416Z,78.71
2024-03-13T23:44:48.766Z,78.59
2024-03-13T23:47:16.743Z,78.54
2024-03-13T23:49:43.525Z,78.82
2024-03-13T23:52:10.946Z,78.71
2024-03-13T23:54:41.291Z,78.78
2024-03-13T23:57:08.695Z,78.79
2024-03-13T23:59:36.003Z,78.48
